createdAt,value
2018-09-23T00:01:32.689Z,89.48
2018-09-23T00:04:02.081Z,89.35
2018-09-23T00:06:31.499Z,90.07
2018-09-23T00:09:00.873Z,90.83
2018-09-23T00:11:30.240Z,91.20
2018-09-23T00:13:59.615Z,91.08
2018-09-23T00:16:29.199Z,90.90
2018-09-23T00:18:58.583Z,90.85
2018-09-23T00:21:27.985Z,89.46
2018-09-23T00:23:57.375Z,87.92
2018-09-23T00:26:26.802Z,87.56
2018-09-23T00:28:56.186Z,88.75
2018-09-23T00:31:25.596Z,89.33
2018-09-23T00:33:55.303Z,90.10
2018-09-23T00:36:24.826Z,89.95
2018-09-23T00:38:54.189Z,89.75
2018-09-23T00:41:23.627Z,90.04
2018-09-23T00:43:53.029Z,90.72
2018-09-23T00:46:22.539Z,88.50
2018-09-23T00:48:51.903Z,88.76
2018-09-23T00:51:21.265Z,88.42
2018-09-23T00:53:50.750Z,89.62
2018-09-23T00:56:20.145Z,89.54
2018-09-23T00:58:49.558Z,90.15
2018-09-23T01:01:18.918Z,90.43
2018-09-23T01:03:48.335Z,90.40
2018-09-23T01:06:17.737Z,91.16
2018-09-23T01:08:47.152Z,90.97
2018-09-23T01:11:16.519Z,92.12
2018-09-23T01:13:45.972Z,91.58
2018-09-23T01:16:15.331Z,91.73
2018-09-23T01:18:44.743Z,91.79
2018-09-23T01:21:14.115Z,91.29
2018-09-23T01:23:43.577Z,91.00
2018-09-23T01:26:13.414Z,91.05
2018-09-23T01:28:42.877Z,91.44
2018-09-23T01:31:12.278Z,91.33
2018-09-23T01:33:41.678Z,90.84
2018-09-23T01:36:11.038Z,90.93
2018-09-23T01:38:40.506Z,90.96
2018-09-23T01:41:10.031Z,90.87
2018-09-23T01:43:39.418Z,91.77
2018-09-23T01:46:08.786Z,91.38
2018-09-23T01:48:38.142Z,91.63
2018-09-23T01:51:07.914Z,91.58
2018-09-23T01:53:37.309Z,92.10
2018-09-23T01:56:06.715Z,92.04
2018-09-23T01:58:36.089Z,91.90
2018-09-23T02:01:05.562Z,91.37
2018-09-23T02:03:34.918Z,91.78
2018-09-23T02:06:04.335Z,92.26
2018-09-23T02:08:33.700Z,91.98
2018-09-23T02:11:03.142Z,92.41
2018-09-23T02:13:32.482Z,92.20
2018-09-23T02:16:01.964Z,91.73
2018-09-23T02:18:31.326Z,92.09
2018-09-23T02:21:00.926Z,92.28
2018-09-23T02:23:30.266Z,91.91
2018-09-23T02:25:59.736Z,92.30
2018-09-23T02:28:29.114Z,92.36
2018-09-23T02:30:58.579Z,92.20
2018-09-23T02:33:27.924Z,92.10
2018-09-23T02:35:57.347Z,91.57
2018-09-23T02:38:26.722Z,92.36
2018-09-23T02:40:56.111Z,91.98
2018-09-23T02:43:25.584Z,91.86
2018-09-23T02:45:54.980Z,92.12
2018-09-23T02:48:24.342Z,92.13
2018-09-23T02:50:53.784Z,91.59
2018-09-23T02:53:23.155Z,92.02
2018-09-23T02:55:52.585Z,92.18
2018-09-23T02:58:21.955Z,92.04
2018-09-23T03:00:51.382Z,92.30
2018-09-23T03:03:20.794Z,92.22
2018-09-23T03:05:50.154Z,92.58
2018-09-23T03:08:19.617Z,92.18
2018-09-23T03:10:49.129Z,93.00
2018-09-23T03:13:18.519Z,92.77
2018-09-23T03:15:47.987Z,93.42
2018-09-23T03:18:17.342Z,93.61
2018-09-23T03:20:46.791Z,94.07
2018-09-23T03:23:16.192Z,94.41
2018-09-23T03:25:45.614Z,94.71
2018-09-23T03:28:14.987Z,95.02
2018-09-23T03:30:44.448Z,95.49
2018-09-23T03:33:13.837Z,95.44
2018-09-23T03:35:43.413Z,95.32
2018-09-23T03:38:12.838Z,95.87
2018-09-23T03:40:42.201Z,95.84
2018-09-23T03:43:11.590Z,96.79
2018-09-23T03:45:41.052Z,96.57
2018-09-23T03:48:10.410Z,96.85
2018-09-23T03:50:39.823Z,97.08
2018-09-23T03:53:09.206Z,97.25
2018-09-23T03:55:38.638Z,97.03
2018-09-23T03:58:08.016Z,97.21
2018-09-23T04:00:37.481Z,97.62
2018-09-23T04:03:07.491Z,97.55
2018-09-23T04:05:37.003Z,97.62
2018-09-23T04:08:06.507Z,97.90
2018-09-23T04:10:36.091Z,97.95
2018-09-23T04:13:05.476Z,98.17
2018-09-23T04:15:34.847Z,98.12
2018-09-23T04:18:04.283Z,98.20
2018-09-23T04:20:33.660Z,98.45
2018-09-23T04:23:03.101Z,98.25
2018-09-23T04:25:32.476Z,98.83
2018-09-23T04:28:01.838Z,98.78
2018-09-23T04:30:31.311Z,98.87
2018-09-23T04:33:00.657Z,98.93
2018-09-23T04:35:30.102Z,98.83
2018-09-23T04:37:59.458Z,99.29
2018-09-23T04:40:28.893Z,99.19
2018-09-23T04:42:58.272Z,99.31
2018-09-23T04:45:27.707Z,99.16
2018-09-23T04:47:57.067Z,99.35
2018-09-23T04:50:26.515Z,99.69
2018-09-23T04:52:55.871Z,99.46
2018-09-23T04:55:25.470Z,99.85
2018-09-23T04:57:54.695Z,99.80
2018-09-23T05:00:24.118Z,99.86
2018-09-23T05:02:53.533Z,100.00
2018-09-23T05:05:22.936Z,100.00
2018-09-23T05:07:52.343Z,100.00
2018-09-23T05:10:21.725Z,100.00
2018-09-23T05:12:51.102Z,100.00
2018-09-23T05:15:20.470Z,100.00
2018-09-23T05:17:49.834Z,100.00
2018-09-23T05:20:19.197Z,100.00
2018-09-23T05:22:48.571Z,100.00
2018-09-23T05:25:18.040Z,100.00
2018-09-23T05:27:47.419Z,100.00
2018-09-23T05:30:16.787Z,100.00
2018-09-23T05:32:46.263Z,100.00
2018-09-23T05:35:15.656Z,100.00
2018-09-23T05:37:45.079Z,100.00
2018-09-23T05:40:14.459Z,100.00
2018-09-23T05:42:43.842Z,100.00
2018-09-23T05:45:13.212Z,100.00
2018-09-23T05:47:42.662Z,100.00
2018-09-23T05:50:12.023Z,100.00
2018-09-23T05:52:41.475Z,100.00
2018-09-23T05:55:10.867Z,100.00
2018-09-23T05:57:40.262Z,100.00
2018-09-23T06:00:10.858Z,100.00
2018-09-23T06:02:40.316Z,100.00
2018-09-23T06:05:09.711Z,100.00
2018-09-23T06:07:39.073Z,100.00
2018-09-23T06:10:08.528Z,100.00
2018-09-23T06:12:37.914Z,100.00
2018-09-23T06:15:07.333Z,100.00
2018-09-23T06:17:36.668Z,100.00
2018-09-23T06:20:06.134Z,100.00
2018-09-23T06:22:35.533Z,100.00
2018-09-23T06:25:05.061Z,100.00
2018-09-23T06:27:34.435Z,100.00
2018-09-23T06:30:03.889Z,100.00
2018-09-23T06:32:33.245Z,100.00
2018-09-23T06:35:02.656Z,100.00
2018-09-23T06:37:32.014Z,100.00
2018-09-23T06:40:01.449Z,100.00
2018-09-23T06:42:30.895Z,100.00
2018-09-23T06:45:00.353Z,100.00
2018-09-23T06:47:29.712Z,100.00
2018-09-23T06:49:59.186Z,100.00
2018-09-23T06:52:28.555Z,100.00
2018-09-23T06:54:57.958Z,100.00
2018-09-23T06:57:27.333Z,100.00
2018-09-23T06:59:56.699Z,100.00
2018-09-23T07:02:26.139Z,100.00
2018-09-23T07:04:55.575Z,100.00
2018-09-23T07:07:24.962Z,100.00
2018-09-23T07:09:54.410Z,100.00
2018-09-23T07:12:23.871Z,100.00
2018-09-23T07:14:53.259Z,100.00
2018-09-23T07:17:22.696Z,100.00
2018-09-23T07:19:52.078Z,100.00
2018-09-23T07:22:21.498Z,100.00
2018-09-23T07:24:50.855Z,100.00
2018-09-23T07:27:20.223Z,100.00
2018-09-23T07:29:49.717Z,100.00
2018-09-23T07:32:19.065Z,100.00
2018-09-23T07:34:48.511Z,100.00
2018-09-23T07:37:18.127Z,100.00
2018-09-23T07:39:47.320Z,100.00
2018-09-23T07:42:16.703Z,100.00
2018-09-23T07:44:46.107Z,100.00
2018-09-23T07:47:15.472Z,100.00
2018-09-23T07:49:44.909Z,100.00
2018-09-23T07:52:14.287Z,100.00
2018-09-23T07:54:44.784Z,100.00
2018-09-23T07:57:14.195Z,100.00
2018-09-23T07:59:43.769Z,100.00
2018-09-23T08:02:13.143Z,100.00
2018-09-23T08:04:42.538Z,100.00
2018-09-23T08:07:11.901Z,100.00
2018-09-23T08:09:41.361Z,100.00
2018-09-23T08:12:10.714Z,100.00
2018-09-23T08:14:40.492Z,100.00
2018-09-23T08:17:09.490Z,100.00
2018-09-23T08:19:39.048Z,100.00
2018-09-23T08:22:08.371Z,100.00
2018-09-23T08:24:37.856Z,100.00
2018-09-23T08:27:07.150Z,100.00
2018-09-23T08:29:36.539Z,100.00
2018-09-23T08:32:05.986Z,100.00
2018-09-23T08:34:35.350Z,100.00
2018-09-23T08:37:04.790Z,100.00
2018-09-23T08:39:34.166Z,100.00
2018-09-23T08:42:03.575Z,99.73
2018-09-23T08:44:32.963Z,99.81
2018-09-23T08:47:02.411Z,99.81
2018-09-23T08:49:31.799Z,98.80
2018-09-23T08:52:01.206Z,98.52
2018-09-23T08:54:30.599Z,97.64
2018-09-23T08:57:00.011Z,97.50
2018-09-23T08:59:29.410Z,96.69
2018-09-23T09:01:58.807Z,97.06
2018-09-23T09:04:28.171Z,96.60
2018-09-23T09:06:57.615Z,96.51
2018-09-23T09:09:27.040Z,96.54
2018-09-23T09:11:56.449Z,96.30
2018-09-23T09:14:25.843Z,96.13
2018-09-23T09:16:55.210Z,95.43
2018-09-23T09:19:24.640Z,95.58
2018-09-23T09:21:53.985Z,95.55
2018-09-23T09:24:23.529Z,95.21
2018-09-23T09:26:52.959Z,95.24
2018-09-23T09:29:22.270Z,94.73
2018-09-23T09:31:51.739Z,94.75
2018-09-23T09:34:21.114Z,93.87
2018-09-23T09:36:50.556Z,93.75
2018-09-23T09:39:19.914Z,94.11
2018-09-23T09:41:49.353Z,93.81
2018-09-23T09:44:18.743Z,94.08
2018-09-23T09:46:48.159Z,93.25
2018-09-23T09:49:17.519Z,94.08
2018-09-23T09:51:46.970Z,94.15
2018-09-23T09:54:16.317Z,94.17
2018-09-23T09:56:45.787Z,94.05
2018-09-23T09:59:15.166Z,93.76
2018-09-23T10:01:44.599Z,94.50
2018-09-23T10:04:13.995Z,93.85
2018-09-23T10:06:43.388Z,93.72
2018-09-23T10:09:12.779Z,93.72
2018-09-23T10:11:42.190Z,94.21
2018-09-23T10:14:11.690Z,93.22
2018-09-23T10:16:41.097Z,92.94
2018-09-23T10:19:10.491Z,92.76
2018-09-23T10:21:39.908Z,92.56
2018-09-23T10:24:09.274Z,92.36
2018-09-23T10:26:39.220Z,92.64
2018-09-23T10:29:08.578Z,92.41
2018-09-23T10:31:38.538Z,92.25
2018-09-23T10:34:07.846Z,92.70
2018-09-23T10:36:37.251Z,92.52
2018-09-23T10:39:09.650Z,91.80
2018-09-23T10:41:39.138Z,91.41
2018-09-23T10:44:08.570Z,91.29
2018-09-23T10:46:38.674Z,91.46
2018-09-23T10:49:08.172Z,90.98
2018-09-23T10:51:37.652Z,90.72
2018-09-23T10:54:07.139Z,90.46
2018-09-23T10:56:36.546Z,90.51
2018-09-23T10:59:05.984Z,91.06
2018-09-23T11:01:35.456Z,91.45
2018-09-23T11:04:04.902Z,90.72
2018-09-23T11:06:34.263Z,90.70
2018-09-23T11:09:03.823Z,90.72
2018-09-23T11:11:33.263Z,90.81
2018-09-23T11:14:02.634Z,90.60
2018-09-23T11:16:32.071Z,90.60
2018-09-23T11:19:01.520Z,90.37
2018-09-23T11:21:30.974Z,90.58
2018-09-23T11:24:00.338Z,90.74
2018-09-23T11:26:29.786Z,90.34
2018-09-23T11:28:59.159Z,89.50
2018-09-23T11:31:28.574Z,89.83
2018-09-23T11:33:57.954Z,89.53
2018-09-23T11:36:27.422Z,89.03
2018-09-23T11:38:56.786Z,88.60
2018-09-23T11:41:26.231Z,88.67
2018-09-23T11:43:55.599Z,87.87
2018-09-23T11:46:25.008Z,87.28
2018-09-23T11:48:54.402Z,87.24
2018-09-23T11:51:23.798Z,86.29
2018-09-23T11:53:53.166Z,86.47
2018-09-23T11:56:22.622Z,86.40
2018-09-23T11:58:52.044Z,86.22
2018-09-23T12:01:21.411Z,85.80
2018-09-23T12:03:50.769Z,85.20
2018-09-23T12:06:20.240Z,85.17
2018-09-23T12:08:49.612Z,84.79
2018-09-23T12:11:19.166Z,84.94
2018-09-23T12:13:48.543Z,84.59
2018-09-23T12:16:18.189Z,84.19
2018-09-23T12:18:47.791Z,83.49
2018-09-23T12:21:17.306Z,84.11
2018-09-23T12:23:46.897Z,83.28
2018-09-23T12:26:16.650Z,82.94
2018-09-23T12:28:46.010Z,80.93
2018-09-23T12:31:46.416Z,78.35
2018-09-23T12:34:15.791Z,80.86
2018-09-23T12:36:45.206Z,80.29
2018-09-23T12:39:14.594Z,80.06
2018-09-23T12:41:44.014Z,80.01
2018-09-23T12:44:13.377Z,80.12
2018-09-23T12:46:42.820Z,80.40
2018-09-23T12:49:12.186Z,80.48
2018-09-23T12:51:41.627Z,80.36
2018-09-23T12:54:10.975Z,80.31
2018-09-23T12:56:40.333Z,80.25
2018-09-23T12:59:09.707Z,79.83
2018-09-23T13:01:39.073Z,79.65
2018-09-23T13:04:08.430Z,79.71
2018-09-23T13:06:37.822Z,80.10
2018-09-23T13:09:08.505Z,80.25
2018-09-23T13:11:38.227Z,79.39
2018-09-23T13:14:08.354Z,79.46
2018-09-23T13:16:37.843Z,80.04
2018-09-23T13:19:07.533Z,79.54
2018-09-23T13:21:36.894Z,79.87
2018-09-23T13:24:06.415Z,79.50
2018-09-23T13:26:35.777Z,79.63
2018-09-23T13:29:05.325Z,78.87
2018-09-23T13:31:34.623Z,79.14
2018-09-23T13:34:04.058Z,79.51
2018-09-23T13:36:33.419Z,79.20
2018-09-23T13:39:02.836Z,78.32
2018-09-23T13:41:32.212Z,78.12
2018-09-23T13:44:01.625Z,77.57
2018-09-23T13:46:30.997Z,75.95
2018-09-23T13:49:00.594Z,73.96
2018-09-23T13:51:29.967Z,74.30
2018-09-23T13:53:59.348Z,70.80
2018-09-23T13:56:28.702Z,72.11
2018-09-23T13:58:58.186Z,73.92
2018-09-23T14:01:27.543Z,74.12
2018-09-23T14:03:56.959Z,73.43
2018-09-23T14:06:26.512Z,72.85
2018-09-23T14:08:55.968Z,73.02
2018-09-23T14:11:25.326Z,71.55
2018-09-23T14:13:54.777Z,70.55
2018-09-23T14:23:22.952Z,70.47
2018-09-23T14:25:52.309Z,70.54
2018-09-23T14:28:21.694Z,71.03
2018-09-23T14:30:51.086Z,71.03
2018-09-23T14:33:20.522Z,71.69
2018-09-23T14:35:49.899Z,71.95
2018-09-23T14:38:19.307Z,71.96
2018-09-23T14:40:48.662Z,71.85
2018-09-23T14:43:18.026Z,71.03
2018-09-23T14:45:47.394Z,71.36
2018-09-23T14:48:16.826Z,70.98
2018-09-23T14:50:46.211Z,70.76
2018-09-23T14:53:15.614Z,71.20
2018-09-23T14:55:44.969Z,70.85
2018-09-23T14:58:14.548Z,71.65
2018-09-23T15:00:44.029Z,71.92
2018-09-23T15:03:13.872Z,71.41
2018-09-23T15:05:43.241Z,71.61
2018-09-23T15:08:12.651Z,71.31
2018-09-23T15:10:42.031Z,71.25
2018-09-23T15:13:11.449Z,71.89
2018-09-23T15:15:40.842Z,72.09
2018-09-23T15:18:10.207Z,71.29
2018-09-23T15:20:39.685Z,71.26
2018-09-23T15:23:09.051Z,71.40
2018-09-23T15:25:38.462Z,71.90
2018-09-23T15:28:07.863Z,80.49
2018-09-23T15:30:37.240Z,91.75
